createdAt,value
2023-02-24T00:00:32.495Z,7.10
2023-02-24T00:01:41.695Z,6.40
2023-02-24T00:02:45.411Z,5.78
2023-02-24T00:03:48.146Z,6.97
2023-02-24T00:04:51.693Z,6.88
2023-02-24T00:05:54.180Z,5.82
2023-02-24T00:06:56.753Z,6.63
2023-02-24T00:07:59.072Z,7.07
2023-02-24T00:09:02.066Z,6.68
2023-02-24T00:10:05.061Z,7.07
2023-02-24T00:11:17.207Z,6.60
2023-02-24T00:12:20.858Z,6.13
2023-02-24T00:13:23.173Z,6.65
2023-02-24T00:14:28.340Z,7.28
2023-02-24T00:15:30.844Z,6.25
2023-02-24T00:16:34.293Z,6.95
2023-02-24T00:17:38.532Z,7.10
2023-02-24T00:18:41.053Z,6.22
2023-02-24T00:19:43.826Z,6.13
2023-02-24T00:20:46.579Z,6.68
2023-02-24T00:21:49.684Z,6.90
2023-02-24T00:22:51.973Z,6.60
2023-02-24T00:23:54.669Z,6.32
2023-02-24T00:25:01.219Z,6.63
2023-02-24T00:26:05.475Z,6.90
2023-02-24T00:27:08.228Z,6.53
2023-02-24T00:28:14.137Z,6.53
2023-02-24T00:29:18.033Z,6.53
2023-02-24T00:30:21.366Z,6.75
2023-02-24T00:31:24.470Z,6.45
2023-02-24T00:32:27.807Z,5.95
2023-02-24T00:33:32.587Z,6.03
2023-02-24T00:34:37.529Z,6.28
2023-02-24T00:35:39.901Z,6.35
2023-02-24T00:36:42.259Z,6.90
2023-02-24T00:37:51.192Z,5.90
2023-02-24T00:38:58.392Z,6.22
2023-02-24T00:40:00.777Z,6.78
2023-02-24T00:41:19.438Z,6.30
2023-02-24T00:42:22.786Z,6.10
2023-02-24T00:43:25.132Z,6.22
2023-02-24T00:44:29.566Z,6.97
2023-02-24T00:45:33.831Z,6.53
2023-02-24T00:46:47.038Z,6.38
2023-02-24T00:47:50.045Z,6.82
2023-02-24T00:48:55.194Z,5.97
2023-02-24T00:49:57.558Z,5.78
2023-02-24T00:51:02.492Z,6.25
2023-02-24T00:52:04.846Z,6.15
2023-02-24T00:53:07.197Z,6.03
2023-02-24T00:54:14.806Z,6.80
2023-02-24T00:55:17.190Z,6.43
2023-02-24T00:56:20.541Z,6.10
2023-02-24T00:57:24.938Z,6.32
2023-02-24T00:58:29.810Z,6.07
2023-02-24T00:59:32.158Z,6.63
2023-02-24T01:00:36.830Z,6.50
2023-02-24T01:01:40.891Z,5.78
2023-02-24T01:02:47.537Z,5.65
2023-02-24T01:03:51.601Z,6.68
2023-02-24T01:04:54.920Z,5.80
2023-02-24T01:06:00.307Z,5.90
2023-02-24T01:07:03.571Z,5.03
2023-02-24T01:08:06.610Z,6.82
2023-02-24T01:09:12.334Z,5.82
2023-02-24T01:10:14.660Z,5.63
2023-02-24T01:11:37.878Z,15.43
2023-02-24T01:12:49.599Z,26.02
2023-02-24T01:13:52.096Z,25.45
2023-02-24T01:14:55.192Z,26.60
2023-02-24T01:16:03.298Z,24.35
2023-02-24T01:17:07.651Z,20.73
2023-02-24T01:18:10.964Z,19.25
2023-02-24T01:19:13.381Z,17.52
2023-02-24T01:20:20.436Z,15.30
2023-02-24T01:21:24.072Z,14.23
2023-02-24T01:22:27.657Z,12.63
2023-02-24T01:23:29.966Z,10.95
2023-02-24T01:24:36.444Z,10.68
2023-02-24T01:25:38.878Z,10.77
2023-02-24T01:26:42.339Z,9.48
2023-02-24T01:27:44.982Z,10.57
2023-02-24T01:28:48.076Z,9.05
2023-02-24T01:29:50.891Z,8.95
2023-02-24T01:30:54.796Z,8.50
2023-02-24T01:31:59.905Z,8.48
2023-02-24T01:33:02.529Z,8.77
2023-02-24T01:34:06.016Z,8.30
2023-02-24T01:35:09.260Z,8.18
2023-02-24T01:36:21.661Z,8.57
2023-02-24T01:37:24.631Z,8.05
2023-02-24T01:38:26.942Z,7.93
2023-02-24T01:39:29.626Z,8.18
2023-02-24T01:40:32.676Z,7.65
2023-02-24T01:41:35.495Z,8.52
2023-02-24T01:42:41.152Z,8.95
2023-02-24T01:44:09.211Z,7.28
2023-02-24T01:45:18.680Z,8.55
2023-02-24T01:46:23.472Z,6.90
2023-02-24T01:47:30.377Z,7.25
2023-02-24T01:48:32.738Z,7.00
2023-02-24T01:49:41.075Z,9.18
2023-02-24T01:50:45.555Z,7.45
2023-02-24T01:51:54.082Z,10.07
2023-02-24T01:53:02.173Z,19.63
2023-02-24T01:54:07.941Z,16.65
2023-02-24T01:55:20.200Z,19.73
2023-02-24T01:56:22.662Z,13.18
2023-02-24T01:57:29.374Z,12.55
2023-02-24T01:58:33.574Z,10.85
2023-02-24T01:59:37.048Z,9.15
2023-02-24T02:00:45.613Z,9.40
2023-02-24T02:01:48.623Z,8.98
2023-02-24T02:02:56.481Z,8.95
2023-02-24T02:04:05.638Z,9.07
2023-02-24T02:05:09.985Z,8.65
2023-02-24T02:06:17.609Z,7.93
2023-02-24T02:07:22.068Z,7.60
2023-02-24T02:08:24.724Z,8.38
2023-02-24T02:09:29.766Z,8.60
2023-02-24T02:10:34.847Z,9.55
2023-02-24T02:11:39.019Z,8.85
2023-02-24T02:12:44.513Z,9.02
2023-02-24T02:13:50.606Z,8.98
2023-02-24T02:14:55.940Z,8.13
2023-02-24T02:16:32.752Z,8.68
2023-02-24T02:18:06.034Z,8.88
2023-02-24T02:19:45.642Z,9.00
2023-02-24T02:21:06.138Z,8.52
2023-02-24T02:22:59.330Z,8.63
2023-02-24T02:24:31.243Z,8.57
2023-02-24T02:26:58.190Z,7.95
2023-02-24T02:28:25.779Z,9.30
2023-02-24T02:29:58.743Z,11.60
2023-02-24T02:31:18.031Z,103.25
2023-02-24T02:32:52.276Z,51.22
2023-02-24T02:34:11.869Z,34.65
2023-02-24T02:35:22.520Z,43.22
2023-02-24T02:36:35.807Z,33.22
2023-02-24T02:38:03.422Z,33.58
2023-02-24T02:39:31.399Z,24.92
2023-02-24T02:40:41.046Z,21.48
2023-02-24T02:41:50.420Z,18.48
2023-02-24T02:43:18.389Z,16.50
2023-02-24T02:44:47.576Z,14.75
2023-02-24T02:46:03.622Z,13.77
2023-02-24T02:47:23.126Z,12.07
2023-02-24T02:48:56.410Z,10.88
2023-02-24T02:50:38.590Z,11.73
2023-02-24T02:51:47.144Z,9.98
2023-02-24T02:52:57.637Z,10.70
2023-02-24T02:54:21.318Z,10.30
2023-02-24T02:55:46.004Z,10.70
2023-02-24T02:57:09.536Z,10.32
2023-02-24T02:58:16.755Z,9.98
2023-02-24T02:59:26.591Z,10.13
2023-02-24T03:00:37.006Z,9.13
2023-02-24T03:01:43.672Z,10.85
2023-02-24T03:02:51.154Z,9.80
2023-02-24T03:03:56.361Z,9.65
2023-02-24T03:05:02.136Z,9.93
2023-02-24T03:06:09.559Z,9.27
2023-02-24T03:07:14.682Z,9.88
2023-02-24T03:08:22.998Z,9.18
2023-02-24T03:09:30.561Z,9.20
2023-02-24T03:10:34.379Z,10.15
2023-02-24T03:11:38.129Z,9.77
2023-02-24T03:12:41.743Z,9.30
2023-02-24T03:13:49.461Z,9.88
2023-02-24T03:14:59.013Z,10.15
2023-02-24T03:16:03.333Z,8.98
2023-02-24T03:17:12.638Z,10.80
2023-02-24T03:18:28.969Z,11.30
2023-02-24T03:19:39.344Z,19.88
2023-02-24T03:20:48.506Z,22.50
2023-02-24T03:22:07.146Z,15.75
2023-02-24T03:23:19.160Z,12.15
2023-02-24T03:24:22.306Z,11.93
2023-02-24T03:26:00.430Z,11.10
2023-02-24T03:27:20.626Z,10.98
2023-02-24T03:28:34.036Z,10.00
2023-02-24T03:29:48.542Z,9.60
2023-02-24T03:31:07.070Z,10.13
2023-02-24T03:32:16.356Z,9.68
2023-02-24T03:33:24.984Z,10.13
2023-02-24T03:35:04.353Z,9.98
2023-02-24T03:36:07.962Z,10.30
2023-02-24T03:37:11.100Z,11.13
2023-02-24T03:38:14.218Z,9.55
2023-02-24T03:39:17.100Z,10.63
2023-02-24T03:40:43.452Z,9.20
2023-02-24T03:42:03.820Z,9.35
2023-02-24T03:43:16.852Z,9.98
2023-02-24T03:44:20.590Z,10.13
2023-02-24T03:45:23.982Z,10.05
2023-02-24T03:46:26.596Z,10.15
2023-02-24T03:47:30.202Z,9.52
2023-02-24T03:48:37.993Z,8.88
2023-02-24T03:49:43.730Z,9.48
2023-02-24T03:50:49.465Z,9.95
2023-02-24T03:52:14.116Z,10.07
2023-02-24T03:53:39.566Z,9.52
2023-02-24T03:54:59.254Z,16.10
2023-02-24T03:56:10.822Z,24.70
2023-02-24T03:57:54.745Z,19.77
2023-02-24T03:59:34.435Z,20.42
2023-02-24T04:00:38.383Z,20.30
2023-02-24T04:01:58.019Z,19.35
2023-02-24T04:03:43.222Z,16.60
2023-02-24T04:05:27.487Z,15.43
2023-02-24T04:06:58.092Z,13.77
2023-02-24T04:08:07.317Z,13.50
2023-02-24T04:09:33.307Z,12.25
2023-02-24T04:11:05.548Z,12.23
2023-02-24T04:12:09.293Z,11.45
2023-02-24T04:13:43.445Z,10.15
2023-02-24T04:15:37.715Z,10.05
2023-02-24T04:16:52.788Z,8.93
2023-02-24T04:18:01.185Z,9.77
2023-02-24T04:19:14.012Z,10.15
2023-02-24T04:20:20.816Z,9.05
2023-02-24T04:21:32.154Z,8.88
2023-02-24T04:22:36.216Z,8.88
2023-02-24T04:23:43.335Z,8.73
2023-02-24T04:24:50.076Z,8.85
2023-02-24T04:25:56.246Z,8.30
2023-02-24T04:27:01.178Z,8.93
2023-02-24T04:28:08.087Z,8.30
2023-02-24T04:29:20.513Z,7.65
2023-02-24T04:30:29.928Z,7.97
2023-02-24T04:31:33.997Z,7.60
2023-02-24T04:32:37.302Z,10.35
2023-02-24T04:33:39.954Z,8.88
2023-02-24T04:34:43.624Z,100.63
2023-02-24T04:35:48.239Z,53.63
2023-02-24T04:36:50.744Z,57.67
2023-02-24T04:37:55.540Z,47.40
2023-02-24T04:38:58.676Z,40.85
2023-02-24T04:40:10.602Z,30.33
2023-02-24T04:41:21.457Z,25.15
2023-02-24T04:42:24.066Z,22.23
2023-02-24T04:43:26.434Z,21.65
2023-02-24T04:44:29.113Z,18.80
2023-02-24T04:45:32.519Z,20.30
2023-02-24T04:46:35.112Z,19.35
2023-02-24T04:47:37.653Z,18.95
2023-02-24T04:48:39.981Z,18.42
2023-02-24T04:49:42.695Z,18.27
2023-02-24T04:50:45.389Z,17.95
2023-02-24T04:51:47.805Z,17.00
2023-02-24T04:53:01.877Z,17.13
2023-02-24T04:54:04.309Z,17.00
2023-02-24T04:55:10.200Z,17.65
2023-02-24T04:56:12.537Z,16.08
2023-02-24T04:57:14.965Z,16.98
2023-02-24T04:58:20.239Z,16.58
2023-02-24T04:59:24.728Z,16.50
2023-02-24T05:00:33.291Z,16.33
2023-02-24T05:01:36.374Z,13.93
2023-02-24T05:02:39.021Z,16.08
2023-02-24T05:03:44.411Z,14.43
2023-02-24T05:04:49.624Z,13.65
2023-02-24T05:05:59.906Z,13.82
2023-02-24T05:07:03.066Z,14.93
2023-02-24T05:08:09.709Z,13.65
2023-02-24T05:09:14.284Z,17.98
2023-02-24T05:10:18.485Z,17.65
2023-02-24T05:11:21.285Z,18.70
2023-02-24T05:12:23.845Z,17.30
2023-02-24T05:13:28.885Z,16.98
2023-02-24T05:14:31.190Z,16.55
2023-02-24T05:15:33.936Z,17.08
2023-02-24T05:16:37.696Z,15.40
2023-02-24T05:17:41.034Z,15.68
2023-02-24T05:18:44.862Z,15.82
2023-02-24T05:20:06.050Z,15.93
2023-02-24T05:21:33.168Z,16.05
2023-02-24T05:22:35.544Z,16.23
2023-02-24T05:23:46.737Z,17.30
2023-02-24T05:25:54.889Z,14.82
2023-02-24T05:26:59.161Z,14.88
2023-02-24T05:28:04.028Z,14.90
2023-02-24T05:29:07.579Z,15.23
2023-02-24T05:30:11.437Z,15.25
2023-02-24T05:31:16.970Z,15.48
2023-02-24T05:32:19.431Z,14.20
2023-02-24T05:33:22.577Z,13.23
2023-02-24T05:34:26.476Z,15.52
2023-02-24T05:35:29.715Z,22.92
2023-02-24T05:36:35.913Z,18.27
2023-02-24T05:37:41.939Z,17.90
2023-02-24T05:38:45.965Z,20.45
2023-02-24T05:39:48.365Z,17.77
2023-02-24T05:40:50.696Z,17.00
2023-02-24T05:41:54.737Z,16.58
2023-02-24T05:42:58.163Z,15.30
2023-02-24T05:44:04.884Z,15.48
2023-02-24T05:45:10.949Z,15.77
2023-02-24T05:46:14.005Z,14.02
2023-02-24T05:47:19.599Z,15.30
2023-02-24T05:48:22.259Z,15.98
2023-02-24T05:49:34.032Z,15.73
2023-02-24T05:50:36.541Z,15.02
2023-02-24T05:51:43.285Z,14.60
2023-02-24T05:52:46.324Z,14.75
2023-02-24T05:53:48.807Z,15.63
2023-02-24T05:54:53.049Z,13.10
2023-02-24T05:56:00.680Z,13.75
2023-02-24T05:57:07.361Z,16.65
2023-02-24T05:58:09.682Z,17.08
2023-02-24T05:59:18.040Z,17.02
2023-02-24T06:00:25.798Z,19.38
2023-02-24T06:01:33.265Z,17.92
2023-02-24T06:02:37.705Z,15.05
2023-02-24T06:03:41.394Z,15.65
2023-02-24T06:04:50.735Z,14.98
2023-02-24T06:05:53.837Z,14.85
2023-02-24T06:06:56.512Z,14.93
2023-02-24T06:08:05.798Z,15.50
2023-02-24T06:09:12.609Z,15.65
2023-02-24T06:10:15.262Z,14.32
2023-02-24T06:11:21.348Z,14.63
2023-02-24T06:12:34.467Z,15.05
2023-02-24T06:13:39.589Z,14.30
2023-02-24T06:14:42.505Z,14.20
2023-02-24T06:15:50.360Z,14.00
2023-02-24T06:16:53.091Z,13.93
2023-02-24T06:18:00.885Z,14.52
2023-02-24T06:19:05.432Z,14.40
2023-02-24T06:20:13.883Z,13.93
2023-02-24T06:21:16.420Z,13.35
2023-02-24T06:22:22.562Z,14.65
2023-02-24T06:23:26.689Z,13.80
2023-02-24T06:24:31.173Z,14.00
2023-02-24T06:25:33.717Z,14.73
2023-02-24T06:26:36.796Z,15.15
2023-02-24T06:27:39.399Z,13.15
2023-02-24T06:28:44.857Z,11.63
2023-02-24T06:29:52.481Z,14.20
2023-02-24T06:30:56.156Z,18.05
2023-02-24T06:31:58.775Z,20.38
2023-02-24T06:33:01.275Z,24.55
2023-02-24T06:34:03.759Z,22.30
2023-02-24T06:35:06.321Z,20.55
2023-02-24T06:36:08.969Z,19.70
2023-02-24T06:37:14.213Z,22.10
2023-02-24T06:38:17.418Z,21.83
2023-02-24T06:39:19.836Z,17.42
2023-02-24T06:40:22.334Z,15.85
2023-02-24T06:41:29.369Z,15.73
2023-02-24T06:42:31.713Z,15.75
2023-02-24T06:43:34.096Z,14.95
2023-02-24T06:44:38.638Z,15.45
2023-02-24T06:45:41.269Z,15.15
2023-02-24T06:46:43.747Z,14.90
2023-02-24T06:47:48.730Z,15.13
2023-02-24T06:48:51.849Z,14.43
2023-02-24T06:49:54.269Z,15.00
2023-02-24T06:50:57.364Z,13.93
2023-02-24T06:52:00.240Z,15.18
2023-02-24T06:53:02.674Z,14.13
2023-02-24T06:54:06.180Z,15.85
2023-02-24T06:55:28.313Z,14.88
2023-02-24T06:56:32.447Z,14.25
2023-02-24T06:57:34.870Z,13.68
2023-02-24T06:58:39.067Z,13.63
2023-02-24T06:59:42.360Z,13.45
2023-02-24T07:00:56.585Z,13.35
2023-02-24T07:02:01.716Z,13.80
2023-02-24T07:03:15.065Z,12.30
2023-02-24T07:04:18.104Z,13.70
2023-02-24T07:05:24.105Z,12.23
2023-02-24T07:06:29.357Z,12.93
2023-02-24T07:07:31.791Z,12.52
2023-02-24T07:08:34.098Z,12.18
2023-02-24T07:09:36.630Z,13.00
2023-02-24T07:10:39.058Z,11.95
2023-02-24T07:11:46.407Z,12.45
2023-02-24T07:12:51.023Z,11.93
2023-02-24T07:13:54.472Z,12.07
2023-02-24T07:14:57.423Z,13.30
2023-02-24T07:16:06.739Z,12.05
2023-02-24T07:17:09.147Z,12.18
2023-02-24T07:18:14.856Z,12.73
2023-02-24T07:19:17.264Z,11.98
2023-02-24T07:20:25.367Z,12.38
2023-02-24T07:21:30.168Z,11.05
2023-02-24T07:22:32.520Z,11.48
2023-02-24T07:23:34.900Z,12.00
2023-02-24T07:24:39.127Z,11.85
2023-02-24T07:25:43.326Z,12.38
2023-02-24T07:26:51.581Z,11.52
2023-02-24T07:27:53.949Z,11.60
2023-02-24T07:28:56.620Z,11.77
2023-02-24T07:29:59.355Z,11.82
2023-02-24T07:31:08.365Z,11.50
2023-02-24T07:32:11.189Z,11.10
2023-02-24T07:33:14.309Z,11.57
2023-02-24T07:34:23.390Z,11.57
2023-02-24T07:35:26.464Z,12.13
2023-02-24T07:36:38.807Z,11.43
2023-02-24T07:37:41.586Z,11.48
2023-02-24T07:38:45.504Z,11.20
2023-02-24T07:39:47.812Z,11.32
2023-02-24T07:40:50.340Z,10.40
2023-02-24T07:41:57.155Z,11.27
2023-02-24T07:43:01.300Z,10.18
2023-02-24T07:44:03.897Z,10.07
2023-02-24T07:45:08.253Z,10.80
2023-02-24T07:46:19.697Z,10.77
2023-02-24T07:47:22.805Z,12.88
2023-02-24T07:48:25.743Z,12.13
2023-02-24T07:49:30.107Z,11.00
2023-02-24T07:50:33.491Z,11.18
2023-02-24T07:51:36.292Z,11.52
2023-02-24T07:52:39.072Z,12.20
2023-02-24T07:53:41.966Z,12.18
2023-02-24T07:54:44.322Z,11.93
2023-02-24T07:55:46.801Z,9.55
2023-02-24T07:56:59.658Z,9.60
2023-02-24T07:58:05.720Z,9.65
2023-02-24T07:59:11.211Z,10.82
2023-02-24T08:00:19.425Z,10.13
2023-02-24T08:01:24.718Z,10.35
2023-02-24T08:02:27.468Z,10.55
2023-02-24T08:03:30.239Z,10.43
2023-02-24T08:04:33.515Z,9.90
2023-02-24T08:05:36.339Z,11.18
2023-02-24T08:06:46.110Z,10.00
2023-02-24T08:07:49.751Z,10.95
2023-02-24T08:08:58.828Z,8.93
2023-02-24T08:10:13.778Z,10.20
2023-02-24T08:11:16.182Z,10.35
2023-02-24T08:12:22.120Z,9.45
2023-02-24T08:13:24.797Z,9.85
2023-02-24T08:14:35.396Z,11.13
2023-02-24T08:15:37.869Z,11.35
2023-02-24T08:16:48.901Z,12.10
2023-02-24T08:17:53.121Z,11.23
2023-02-24T08:18:57.806Z,12.68
2023-02-24T08:20:13.297Z,11.00
2023-02-24T08:21:19.531Z,10.88
2023-02-24T08:22:24.935Z,10.50
2023-02-24T08:23:27.607Z,10.65
2023-02-24T08:24:30.027Z,11.20
2023-02-24T08:25:35.933Z,9.15
2023-02-24T08:26:44.776Z,10.13
2023-02-24T08:28:07.259Z,9.50
2023-02-24T08:29:11.592Z,9.73
2023-02-24T08:30:29.870Z,9.63
2023-02-24T08:31:32.788Z,10.40
2023-02-24T08:32:43.946Z,10.60
2023-02-24T08:33:46.361Z,9.48
2023-02-24T08:34:49.475Z,9.77
2023-02-24T08:36:00.785Z,9.13
2023-02-24T08:38:10.276Z,8.88
2023-02-24T08:39:14.613Z,8.32
2023-02-24T08:40:33.390Z,9.35
2023-02-24T08:41:45.376Z,9.77
2023-02-24T08:42:49.968Z,10.27
2023-02-24T08:43:52.299Z,10.10
2023-02-24T08:44:54.599Z,9.80
2023-02-24T08:46:25.602Z,10.25
2023-02-24T08:47:31.177Z,9.02
2023-02-24T08:48:37.354Z,9.48
2023-02-24T08:49:40.438Z,10.38
2023-02-24T08:50:45.509Z,10.52
2023-02-24T08:51:49.022Z,9.77
2023-02-24T08:52:51.304Z,9.77
2023-02-24T08:53:56.561Z,9.63
2023-02-24T08:55:01.670Z,11.07
2023-02-24T08:56:09.421Z,10.52
2023-02-24T08:57:15.251Z,10.00
2023-02-24T08:58:19.010Z,9.70
2023-02-24T08:59:43.154Z,10.32
2023-02-24T09:00:49.158Z,10.60
2023-02-24T09:02:04.383Z,10.73
2023-02-24T09:03:08.435Z,9.82
2023-02-24T09:04:13.664Z,10.40
2023-02-24T09:05:16.834Z,9.98
2023-02-24T09:06:25.390Z,9.98
2023-02-24T09:07:35.244Z,9.93
2023-02-24T09:08:39.718Z,12.32
2023-02-24T09:09:42.603Z,10.82
2023-02-24T09:10:46.208Z,11.13
2023-02-24T09:11:50.669Z,83.50
2023-02-24T09:12:53.555Z,37.20
2023-02-24T09:13:58.134Z,30.20
2023-02-24T09:15:04.755Z,34.58
2023-02-24T09:16:16.581Z,41.00
2023-02-24T09:17:20.598Z,37.38
2023-02-24T09:18:30.169Z,36.60
2023-02-24T09:19:51.523Z,37.50
2023-02-24T09:20:56.888Z,36.70
2023-02-24T09:22:21.122Z,36.70
2023-02-24T09:23:29.858Z,30.98
2023-02-24T09:24:32.731Z,31.67
2023-02-24T09:25:41.312Z,25.80
2023-02-24T09:26:43.884Z,35.05
2023-02-24T09:28:07.811Z,32.50
2023-02-24T09:29:33.549Z,35.55
2023-02-24T09:30:53.162Z,35.25
2023-02-24T09:32:04.441Z,36.22
2023-02-24T09:33:20.870Z,25.40
2023-02-24T09:34:30.024Z,22.15
2023-02-24T09:35:36.603Z,19.90
2023-02-24T09:37:01.452Z,24.15
2023-02-24T09:38:08.013Z,19.40
2023-02-24T09:39:11.048Z,19.42
2023-02-24T09:40:16.496Z,19.77
2023-02-24T09:41:56.520Z,20.05
2023-02-24T09:42:59.050Z,20.30
2023-02-24T09:44:03.794Z,17.38
2023-02-24T09:45:12.845Z,15.93
2023-02-24T09:46:15.439Z,15.60
2023-02-24T09:47:42.189Z,17.42
2023-02-24T09:48:55.131Z,18.30
2023-02-24T09:50:04.280Z,16.20
2023-02-24T09:51:10.444Z,20.55
2023-02-24T09:52:17.108Z,24.92
2023-02-24T09:53:19.843Z,19.35
2023-02-24T09:54:25.136Z,20.90
2023-02-24T09:56:05.089Z,22.23
2023-02-24T09:57:16.923Z,22.13
2023-02-24T09:58:43.942Z,23.48
2023-02-24T10:00:23.374Z,24.30
2023-02-24T10:01:52.644Z,24.58
2023-02-24T10:03:48.140Z,20.10
2023-02-24T10:05:49.552Z,17.48
2023-02-24T10:07:12.519Z,14.07
2023-02-24T10:08:26.004Z,14.73
2023-02-24T10:09:39.093Z,13.68
2023-02-24T10:11:00.686Z,12.93
2023-02-24T10:12:21.567Z,13.93
2023-02-24T10:13:32.470Z,14.20
2023-02-24T10:15:16.586Z,15.45
2023-02-24T10:16:26.344Z,14.60
2023-02-24T10:17:40.074Z,15.10
2023-02-24T10:19:18.702Z,15.15
2023-02-24T10:20:44.813Z,14.75
2023-02-24T10:22:02.746Z,13.82
2023-02-24T10:23:14.010Z,14.43
2023-02-24T10:25:01.407Z,15.07
2023-02-24T10:26:30.321Z,13.75
2023-02-24T10:27:42.118Z,13.07
2023-02-24T10:28:53.269Z,12.68
2023-02-24T10:30:05.719Z,14.07
2023-02-24T10:31:26.305Z,14.52
2023-02-24T10:32:52.050Z,14.48
2023-02-24T10:34:08.645Z,12.23
2023-02-24T10:35:18.280Z,13.35
2023-02-24T10:36:30.542Z,12.65
2023-02-24T10:37:34.165Z,13.27
2023-02-24T10:38:45.630Z,15.40
2023-02-24T10:39:51.917Z,13.95
2023-02-24T10:40:58.133Z,12.82
2023-02-24T10:42:17.449Z,13.07
2023-02-24T10:43:29.847Z,13.40
2023-02-24T10:44:36.087Z,13.90
2023-02-24T10:45:45.212Z,13.65
2023-02-24T10:46:48.273Z,11.43
2023-02-24T10:47:57.424Z,11.73
2023-02-24T10:49:02.576Z,13.18
2023-02-24T10:50:12.644Z,13.85
2023-02-24T10:51:22.919Z,12.57
2023-02-24T10:52:50.375Z,12.25
2023-02-24T10:54:21.745Z,11.15
2023-02-24T10:55:43.443Z,13.65
2023-02-24T10:58:16.005Z,10.95
2023-02-24T10:59:22.600Z,11.43
2023-02-24T11:00:51.125Z,13.00
2023-02-24T11:01:59.106Z,11.82
2023-02-24T11:03:10.426Z,11.80
2023-02-24T11:06:04.633Z,11.07
2023-02-24T11:07:24.693Z,12.13
2023-02-24T11:08:44.255Z,11.23
2023-02-24T11:09:52.867Z,12.43
2023-02-24T11:11:06.853Z,11.00
2023-02-24T11:12:38.432Z,10.90
2023-02-24T11:14:07.866Z,10.10
2023-02-24T11:15:38.967Z,11.93
2023-02-24T11:17:14.601Z,13.15
2023-02-24T11:18:20.198Z,13.13
2023-02-24T11:19:23.052Z,10.15
2023-02-24T11:20:47.769Z,10.95
2023-02-24T11:21:50.704Z,10.15
2023-02-24T11:22:55.868Z,10.60
2023-02-24T11:24:02.739Z,11.23
2023-02-24T11:25:13.813Z,13.18
2023-02-24T11:26:23.415Z,13.60
2023-02-24T11:27:28.007Z,13.13
2023-02-24T11:28:39.347Z,13.00
2023-02-24T11:29:58.852Z,12.20
2023-02-24T11:31:04.039Z,9.82
2023-02-24T11:32:48.011Z,11.45
2023-02-24T11:34:07.578Z,12.35
2023-02-24T11:35:23.938Z,11.48
2023-02-24T11:37:09.107Z,11.05
2023-02-24T11:38:31.841Z,12.15
2023-02-24T11:39:55.538Z,12.88
2023-02-24T11:41:23.891Z,11.48
2023-02-24T11:42:51.944Z,12.23
2023-02-24T11:44:04.588Z,11.07
2023-02-24T11:45:12.630Z,12.32
2023-02-24T11:46:20.893Z,12.27
2023-02-24T11:47:33.568Z,13.60
2023-02-24T11:48:52.208Z,11.73
2023-02-24T11:50:05.239Z,11.43
2023-02-24T11:51:16.258Z,11.93
2023-02-24T11:52:30.252Z,11.57
2023-02-24T11:53:35.642Z,11.50
2023-02-24T11:54:44.259Z,12.07
2023-02-24T11:55:54.105Z,11.77
2023-02-24T11:57:00.535Z,12.48
2023-02-24T11:58:10.421Z,11.73
2023-02-24T11:59:43.642Z,13.20
2023-02-24T12:00:59.580Z,11.77
2023-02-24T12:02:14.273Z,12.48
2023-02-24T12:03:37.250Z,12.38
2023-02-24T12:04:59.749Z,10.75
2023-02-24T12:06:23.332Z,11.52
2023-02-24T12:07:31.234Z,12.35
2023-02-24T12:08:38.007Z,12.57
2023-02-24T12:09:56.311Z,11.98
2023-02-24T12:11:11.454Z,12.30
2023-02-24T12:12:19.330Z,10.88
2023-02-24T12:13:28.732Z,11.85
2023-02-24T12:14:42.720Z,12.55
2023-02-24T12:16:03.110Z,11.90
2023-02-24T12:17:40.945Z,11.93
2023-02-24T12:18:50.466Z,11.07
2023-02-24T12:20:05.047Z,11.70
2023-02-24T12:21:30.649Z,11.50
2023-02-24T12:22:47.257Z,12.25
2023-02-24T12:23:55.046Z,12.43
2023-02-24T12:24:57.783Z,12.20
2023-02-24T12:26:19.919Z,12.40
2023-02-24T12:27:42.319Z,12.18
2023-02-24T12:29:00.361Z,11.35
2023-02-24T12:30:34.076Z,11.52
2023-02-24T12:32:04.548Z,11.38
2023-02-24T12:33:34.070Z,13.00
2023-02-24T12:34:47.396Z,23.65
2023-02-24T12:36:04.179Z,18.88
2023-02-24T12:37:25.191Z,21.17
2023-02-24T12:39:09.640Z,18.25
2023-02-24T12:40:18.890Z,16.83
2023-02-24T12:42:00.172Z,13.32
2023-02-24T12:43:14.048Z,12.17
2023-02-24T12:44:35.602Z,11.57
2023-02-24T12:46:22.408Z,10.82
2023-02-24T12:47:36.201Z,12.27
2023-02-24T12:49:24.977Z,11.88
2023-02-24T12:50:51.607Z,12.70
2023-02-24T12:52:09.961Z,10.25
2023-02-24T12:53:30.691Z,11.10
2023-02-24T12:54:51.427Z,11.03
2023-02-24T12:56:06.584Z,11.05
2023-02-24T12:57:13.978Z,11.75
2023-02-24T12:58:19.442Z,11.32
2023-02-24T12:59:28.747Z,12.57
2023-02-24T13:00:45.343Z,10.20
2023-02-24T13:02:20.195Z,11.63
2023-02-24T13:03:22.583Z,11.23
2023-02-24T13:04:39.732Z,11.10
2023-02-24T13:06:09.736Z,10.23
2023-02-24T13:07:36.557Z,13.77
2023-02-24T13:09:19.725Z,15.07
2023-02-24T13:10:50.836Z,13.45
2023-02-24T13:12:20.278Z,12.90
2023-02-24T13:13:37.044Z,11.82
2023-02-24T13:14:41.933Z,11.95
2023-02-24T13:15:56.378Z,11.10
2023-02-24T13:17:11.686Z,11.05
2023-02-24T13:18:24.100Z,11.07
2023-02-24T13:19:26.451Z,10.80
2023-02-24T13:20:36.346Z,10.75
2023-02-24T13:21:39.891Z,10.80
2023-02-24T13:22:43.554Z,11.80
2023-02-24T13:23:58.877Z,10.73
2023-02-24T13:25:17.125Z,11.18
2023-02-24T13:26:23.811Z,10.02
2023-02-24T13:27:29.276Z,12.88
2023-02-24T13:28:38.343Z,15.85
2023-02-24T13:29:57.531Z,17.42
2023-02-24T13:31:09.713Z,29.25
2023-02-24T13:32:35.957Z,24.20
2023-02-24T13:33:43.500Z,18.88
2023-02-24T13:34:46.074Z,14.60
2023-02-24T13:36:05.315Z,13.27
2023-02-24T13:37:09.663Z,12.73
2023-02-24T13:38:35.869Z,12.23
2023-02-24T13:39:44.265Z,11.13
2023-02-24T13:40:46.918Z,11.63
2023-02-24T13:41:49.342Z,12.18
2023-02-24T13:42:59.319Z,12.13
2023-02-24T13:44:21.177Z,11.07
2023-02-24T13:45:25.581Z,11.70
2023-02-24T13:46:53.261Z,12.10
2023-02-24T13:48:13.686Z,12.18
2023-02-24T13:49:36.538Z,11.02
2023-02-24T13:51:05.551Z,11.20
2023-02-24T13:52:34.486Z,12.48
2023-02-24T13:53:58.819Z,12.52
2023-02-24T13:55:29.273Z,12.13
2023-02-24T13:56:31.862Z,11.07
2023-02-24T13:57:42.994Z,12.60
2023-02-24T13:59:01.503Z,11.73
2023-02-24T14:00:21.746Z,11.77
2023-02-24T14:01:28.896Z,16.30
2023-02-24T14:02:36.219Z,13.50
2023-02-24T14:03:41.330Z,14.65
2023-02-24T14:04:52.870Z,16.55
2023-02-24T14:05:59.288Z,15.05
2023-02-24T14:07:04.942Z,14.25
2023-02-24T14:08:07.679Z,13.57
2023-02-24T14:09:17.383Z,13.13
2023-02-24T14:10:28.244Z,21.40
2023-02-24T14:11:34.893Z,16.30
2023-02-24T14:12:37.673Z,17.33
2023-02-24T14:13:40.836Z,13.50
2023-02-24T14:14:44.370Z,13.35
2023-02-24T14:15:48.318Z,13.88
2023-02-24T14:16:51.545Z,12.70
2023-02-24T14:18:05.540Z,12.98
2023-02-24T14:19:16.107Z,11.82
2023-02-24T14:20:19.984Z,11.55
2023-02-24T14:21:25.593Z,12.82
2023-02-24T14:22:27.992Z,12.55
2023-02-24T14:23:33.501Z,11.73
2023-02-24T14:24:36.064Z,11.65
2023-02-24T14:25:39.347Z,11.75
2023-02-24T14:26:45.066Z,11.00
2023-02-24T14:27:50.528Z,12.23
2023-02-24T14:28:57.197Z,11.45
2023-02-24T14:30:00.306Z,11.38
2023-02-24T14:31:11.495Z,11.30
2023-02-24T14:32:21.331Z,11.48
2023-02-24T14:33:33.301Z,11.13
2023-02-24T14:34:35.979Z,11.85
2023-02-24T14:35:47.119Z,9.55
2023-02-24T14:36:52.907Z,11.25
2023-02-24T14:37:55.549Z,12.43
2023-02-24T14:39:02.387Z,10.48
2023-02-24T14:40:14.193Z,10.63
2023-02-24T14:41:24.403Z,10.88
2023-02-24T14:42:28.161Z,15.50
2023-02-24T14:43:30.801Z,17.15
2023-02-24T14:44:34.219Z,14.15
2023-02-24T14:45:47.113Z,14.00
2023-02-24T14:46:59.033Z,12.45
2023-02-24T14:48:01.434Z,12.68
2023-02-24T14:49:03.776Z,12.75
2023-02-24T14:50:06.844Z,12.27
2023-02-24T14:51:35.566Z,12.60
2023-02-24T14:53:12.570Z,11.32
2023-02-24T14:54:20.083Z,11.27
2023-02-24T14:55:29.570Z,11.25
2023-02-24T14:56:34.330Z,12.38
2023-02-24T14:57:45.095Z,9.85
2023-02-24T14:58:57.222Z,11.70
2023-02-24T15:00:10.916Z,10.57
2023-02-24T15:01:37.490Z,11.40
2023-02-24T15:02:47.729Z,11.30
2023-02-24T15:03:57.407Z,12.10
2023-02-24T15:05:00.374Z,10.68
2023-02-24T15:06:11.768Z,11.70
2023-02-24T15:08:35.076Z,10.73
2023-02-24T15:09:42.296Z,12.13
2023-02-24T15:10:46.622Z,10.30
2023-02-24T15:11:50.698Z,11.82
2023-02-24T15:13:09.755Z,11.02
2023-02-24T15:14:30.085Z,11.50
2023-02-24T15:15:39.104Z,10.27
2023-02-24T15:16:49.209Z,10.20
2023-02-24T15:17:57.907Z,10.70
2023-02-24T15:19:01.852Z,11.00
2023-02-24T15:20:35.505Z,10.23
2023-02-24T15:21:42.704Z,10.13